createdAt,value
2019-05-18T00:02:39.016Z,20.00
2019-05-18T00:05:42.140Z,20.97
2019-05-18T00:08:45.369Z,22.13
2019-05-18T00:11:48.531Z,22.20
2019-05-18T00:14:51.738Z,22.65
2019-05-18T00:17:54.842Z,22.02
2019-05-18T00:20:57.918Z,24.07
2019-05-18T00:24:02.040Z,23.75
2019-05-18T00:27:05.302Z,25.75
2019-05-18T00:30:10.458Z,25.27
2019-05-18T00:33:13.906Z,25.48
2019-05-18T00:36:18.085Z,25.97
2019-05-18T00:39:21.438Z,27.10
2019-05-18T00:42:24.782Z,26.55
2019-05-18T00:45:27.876Z,26.65
2019-05-18T00:48:31.099Z,27.02
2019-05-18T00:51:34.366Z,26.90
2019-05-18T00:54:37.457Z,26.17
2019-05-18T00:57:40.654Z,27.10
2019-05-18T01:00:43.679Z,29.90
2019-05-18T01:03:48.306Z,29.60
2019-05-18T01:06:51.674Z,27.82
2019-05-18T01:09:54.869Z,28.60
2019-05-18T01:12:58.036Z,29.87
2019-05-18T01:16:01.056Z,29.48
2019-05-18T01:19:04.250Z,29.77
2019-05-18T01:22:07.463Z,29.67
2019-05-18T01:25:10.642Z,27.42
2019-05-18T01:28:14.768Z,29.55
2019-05-18T01:31:18.063Z,30.43
2019-05-18T01:34:21.025Z,31.48
2019-05-18T01:37:24.135Z,31.27
2019-05-18T01:40:27.226Z,26.40
2019-05-18T01:43:31.352Z,30.05
2019-05-18T01:46:34.434Z,28.60
2019-05-18T01:49:37.534Z,28.65
2019-05-18T01:52:40.799Z,28.27
2019-05-18T01:55:43.918Z,30.45
2019-05-18T01:58:48.814Z,28.40
2019-05-18T02:01:51.850Z,32.25
2019-05-18T02:04:54.982Z,33.83
2019-05-18T02:07:58.144Z,31.97
2019-05-18T02:11:01.469Z,35.25
2019-05-18T02:14:04.798Z,31.95
2019-05-18T02:17:07.828Z,32.98
2019-05-18T02:20:11.362Z,35.23
2019-05-18T02:23:14.450Z,34.88
2019-05-18T02:26:17.542Z,34.20
2019-05-18T02:29:20.810Z,33.70
2019-05-18T02:32:23.899Z,34.98
2019-05-18T02:35:28.825Z,31.90
2019-05-18T02:38:32.029Z,35.05
2019-05-18T02:41:35.159Z,38.95
2019-05-18T02:44:40.091Z,38.33
2019-05-18T02:47:43.159Z,33.70
2019-05-18T02:50:46.485Z,35.45
2019-05-18T02:53:49.559Z,37.35
2019-05-18T02:56:52.738Z,38.13
2019-05-18T02:59:55.871Z,36.33
2019-05-18T03:02:59.027Z,39.85
2019-05-18T03:06:02.894Z,36.25
2019-05-18T03:09:06.342Z,33.63
2019-05-18T03:12:10.355Z,32.70
2019-05-18T03:15:13.580Z,35.38
2019-05-18T03:18:16.766Z,38.58
2019-05-18T03:21:19.870Z,40.43
2019-05-18T03:24:22.927Z,40.33
2019-05-18T03:27:26.099Z,37.88
2019-05-18T03:30:29.264Z,40.50
2019-05-18T03:33:32.328Z,39.95
2019-05-18T03:36:35.441Z,38.23
2019-05-18T03:39:38.740Z,32.90
2019-05-18T03:42:41.970Z,33.63
2019-05-18T03:45:44.752Z,17.40
2019-05-18T03:48:48.914Z,23.98
2019-05-18T03:51:52.114Z,20.85
2019-05-18T03:54:55.194Z,27.00
2019-05-18T03:57:58.405Z,33.10
2019-05-18T04:01:01.926Z,38.63
2019-05-18T04:04:05.091Z,37.25
2019-05-18T04:07:08.287Z,41.15
2019-05-18T04:10:11.379Z,47.13
2019-05-18T04:13:14.786Z,44.58
2019-05-18T04:16:18.040Z,42.67
2019-05-18T04:19:21.175Z,44.27
2019-05-18T04:22:24.271Z,48.58
2019-05-18T04:25:27.464Z,48.68
2019-05-18T04:28:30.751Z,51.15
2019-05-18T04:31:33.950Z,49.93
2019-05-18T04:34:36.931Z,50.90
2019-05-18T04:37:41.268Z,52.75
2019-05-18T04:40:44.567Z,54.08
2019-05-18T04:43:47.863Z,52.30
2019-05-18T04:46:50.954Z,50.03
2019-05-18T04:50:05.086Z,51.48
2019-05-18T04:53:00.719Z,50.33
2019-05-18T04:56:03.815Z,47.88
2019-05-18T04:59:07.830Z,47.48
2019-05-18T05:02:11.077Z,48.28
2019-05-18T05:05:14.257Z,48.20
2019-05-18T05:08:17.514Z,45.75
2019-05-18T05:11:20.678Z,47.85
2019-05-18T05:14:23.803Z,43.95
2019-05-18T05:17:26.901Z,43.73
2019-05-18T05:20:29.919Z,44.90
2019-05-18T05:23:33.167Z,43.50
2019-05-18T05:26:39.298Z,43.55
2019-05-18T05:29:41.218Z,41.48
2019-05-18T05:32:44.422Z,42.60
2019-05-18T05:35:47.683Z,40.98
2019-05-18T05:38:50.802Z,41.05
2019-05-18T05:41:53.837Z,40.50
2019-05-18T05:44:56.903Z,41.00
2019-05-18T05:48:01.275Z,36.08
2019-05-18T05:51:04.504Z,36.25
2019-05-18T05:54:07.596Z,36.20
2019-05-18T05:57:11.806Z,36.13
2019-05-18T06:00:15.112Z,36.35
2019-05-18T06:03:18.303Z,33.55
2019-05-18T06:06:23.173Z,33.23
2019-05-18T06:09:26.514Z,33.88
2019-05-18T06:12:29.731Z,32.85
2019-05-18T06:15:32.858Z,33.10
2019-05-18T06:18:37.156Z,31.85
2019-05-18T06:21:40.286Z,32.03
2019-05-18T06:24:43.345Z,31.60
2019-05-18T06:27:46.558Z,32.23
2019-05-18T06:30:49.753Z,30.85
2019-05-18T06:33:52.951Z,31.07
2019-05-18T06:36:56.133Z,27.25
2019-05-18T06:39:59.109Z,29.25
2019-05-18T06:43:02.442Z,27.25
2019-05-18T06:46:05.689Z,28.98
2019-05-18T06:49:09.858Z,25.90
2019-05-18T06:52:14.809Z,28.07
2019-05-18T06:55:19.560Z,23.75
2019-05-18T06:58:24.357Z,23.75
2019-05-18T07:01:29.394Z,24.87
2019-05-18T07:04:32.553Z,25.95
2019-05-18T07:07:35.670Z,24.35
2019-05-18T07:10:41.375Z,22.62
2019-05-18T07:13:44.522Z,21.87
2019-05-18T07:16:47.592Z,23.10
2019-05-18T07:19:50.882Z,22.87
2019-05-18T07:22:54.339Z,22.85
2019-05-18T07:25:57.393Z,23.40
2019-05-18T07:29:00.609Z,23.62
2019-05-18T07:32:03.798Z,22.42
2019-05-18T07:35:07.368Z,21.00
2019-05-18T07:38:11.543Z,21.85
2019-05-18T07:41:14.779Z,23.25
2019-05-18T07:44:17.987Z,20.62
2019-05-18T07:47:23.106Z,22.15
2019-05-18T07:50:26.223Z,17.85
2019-05-18T07:53:31.255Z,20.30
2019-05-18T07:56:34.551Z,19.90
2019-05-18T07:59:37.743Z,20.23
2019-05-18T08:02:40.959Z,18.50
2019-05-18T08:05:44.046Z,18.27
2019-05-18T08:08:47.150Z,17.62
2019-05-18T08:11:50.218Z,16.52
2019-05-18T08:14:53.419Z,14.35
2019-05-18T08:17:56.607Z,13.70
2019-05-18T08:20:59.806Z,14.93
2019-05-18T08:24:03.098Z,14.20
2019-05-18T08:27:07.087Z,15.03
2019-05-18T08:30:10.487Z,14.38
2019-05-18T08:33:13.708Z,13.20
2019-05-18T08:36:16.906Z,13.43
2019-05-18T08:39:20.130Z,14.28
2019-05-18T08:42:23.300Z,12.63
2019-05-18T08:45:26.490Z,12.18
2019-05-18T08:48:31.259Z,11.60
2019-05-18T08:51:34.423Z,10.55
2019-05-18T08:54:37.375Z,11.12
2019-05-18T08:57:40.421Z,10.03
2019-05-18T09:00:46.528Z,8.58
2019-05-18T09:03:49.731Z,8.35
2019-05-18T09:06:52.963Z,7.28
2019-05-18T09:09:56.150Z,7.67
2019-05-18T09:12:59.326Z,6.25
2019-05-18T09:16:02.441Z,5.75
2019-05-18T09:19:05.591Z,5.80
2019-05-18T09:22:22.453Z,5.92
2019-05-18T09:25:13.981Z,5.58
2019-05-18T09:28:17.055Z,8.13
2019-05-18T09:31:21.898Z,9.40
2019-05-18T09:34:25.031Z,8.08
2019-05-18T09:37:30.404Z,8.23
2019-05-18T09:40:33.429Z,8.43
2019-05-18T09:43:37.857Z,7.37
2019-05-18T09:46:41.026Z,6.80
2019-05-18T09:49:44.306Z,8.30
2019-05-18T09:52:47.514Z,8.40
2019-05-18T09:55:50.716Z,8.93
2019-05-18T09:58:53.910Z,10.28
2019-05-18T10:01:57.107Z,7.92
2019-05-18T10:05:00.298Z,8.88
2019-05-18T10:08:03.598Z,7.75
2019-05-18T10:11:08.054Z,7.78
2019-05-18T10:14:11.344Z,8.73
2019-05-18T10:17:14.570Z,8.33
2019-05-18T10:20:17.810Z,7.95
2019-05-18T10:23:21.105Z,7.50
2019-05-18T10:26:25.271Z,7.70
2019-05-18T10:29:28.218Z,8.28
2019-05-18T10:32:31.550Z,8.65
2019-05-18T10:35:34.980Z,8.35
2019-05-18T10:38:38.246Z,7.00
2019-05-18T10:41:41.409Z,6.22
2019-05-18T10:44:44.531Z,6.08
2019-05-18T10:47:47.722Z,6.45
2019-05-18T10:50:50.829Z,6.85
2019-05-18T10:53:54.018Z,6.37
2019-05-18T10:56:57.178Z,6.62
2019-05-18T11:00:00.546Z,7.10
2019-05-18T11:03:03.769Z,6.78
2019-05-18T11:06:06.968Z,6.40
2019-05-18T11:09:10.206Z,6.03
2019-05-18T11:12:13.261Z,5.55
2019-05-18T11:15:16.906Z,5.67
2019-05-18T11:18:20.055Z,5.47
2019-05-18T11:21:23.186Z,5.35
2019-05-18T11:24:26.246Z,6.08
2019-05-18T11:27:29.339Z,5.08
2019-05-18T11:30:32.762Z,4.97
2019-05-18T11:33:35.927Z,5.10
2019-05-18T11:36:40.737Z,5.12
2019-05-18T11:39:43.754Z,5.00
2019-05-18T11:42:46.953Z,5.00
2019-05-18T11:45:51.006Z,5.00
2019-05-18T11:48:54.231Z,4.90
2019-05-18T11:51:57.460Z,5.00
2019-05-18T11:55:00.598Z,4.72
2019-05-18T11:58:03.714Z,5.22
2019-05-18T12:01:06.831Z,4.80
2019-05-18T12:04:10.026Z,4.47
2019-05-18T12:07:13.233Z,5.28
2019-05-18T12:10:18.530Z,4.83
2019-05-18T12:13:22.474Z,4.70
2019-05-18T12:16:25.818Z,4.55
2019-05-18T12:19:28.765Z,4.42
2019-05-18T12:22:33.094Z,5.25
2019-05-18T12:25:36.222Z,5.17
2019-05-18T12:28:39.377Z,4.90
2019-05-18T12:31:42.504Z,5.05
2019-05-18T12:34:45.613Z,5.20
2019-05-18T12:37:48.753Z,4.67
2019-05-18T12:40:51.957Z,5.20
2019-05-18T12:43:55.058Z,4.67
2019-05-18T12:46:58.417Z,5.70
2019-05-18T12:50:01.535Z,5.42
2019-05-18T12:53:04.742Z,5.62
2019-05-18T12:56:09.054Z,6.05
2019-05-18T12:59:12.356Z,5.33
2019-05-18T13:02:15.549Z,5.20
2019-05-18T13:05:19.017Z,5.22
2019-05-18T13:08:23.159Z,5.00
2019-05-18T13:11:26.159Z,5.35
2019-05-18T13:14:29.258Z,5.12
2019-05-18T13:17:32.444Z,4.05
2019-05-18T13:20:35.639Z,4.90
2019-05-18T13:23:38.917Z,5.15
2019-05-18T13:26:41.926Z,5.03
2019-05-18T13:29:45.139Z,4.33
2019-05-18T13:32:48.223Z,4.42
2019-05-18T13:35:51.416Z,4.45
2019-05-18T13:38:54.610Z,4.33
2019-05-18T13:41:57.726Z,4.45
2019-05-18T13:45:00.934Z,4.60
2019-05-18T13:48:04.022Z,4.08
2019-05-18T13:51:07.302Z,4.10
2019-05-18T13:54:10.619Z,4.50
2019-05-18T13:57:13.724Z,3.95
2019-05-18T14:00:17.218Z,3.92
2019-05-18T14:03:20.483Z,3.77
2019-05-18T14:06:23.808Z,3.80
2019-05-18T14:09:27.110Z,4.20
2019-05-18T14:12:30.168Z,3.90
2019-05-18T14:15:33.262Z,3.65
2019-05-18T14:18:36.592Z,3.33
2019-05-18T14:21:39.658Z,3.85
2019-05-18T14:24:42.773Z,3.87
2019-05-18T14:27:45.953Z,3.70
2019-05-18T14:30:49.133Z,3.70
2019-05-18T14:33:52.360Z,3.95
2019-05-18T14:36:55.434Z,3.65
2019-05-18T14:40:00.182Z,3.45
2019-05-18T14:43:05.188Z,3.67
2019-05-18T14:46:08.278Z,4.03
2019-05-18T14:49:11.429Z,3.45
2019-05-18T14:52:14.689Z,3.47
2019-05-18T14:55:17.914Z,3.40
2019-05-18T14:58:20.958Z,3.45
2019-05-18T15:01:24.058Z,3.80
2019-05-18T15:04:27.198Z,3.33
2019-05-18T15:07:30.347Z,3.70
2019-05-18T15:10:33.478Z,3.45
2019-05-18T15:13:36.603Z,3.10
2019-05-18T15:16:39.818Z,3.50
2019-05-18T15:19:43.159Z,3.47
2019-05-18T15:22:46.326Z,3.90
2019-05-18T15:25:51.179Z,3.92
2019-05-18T15:28:54.383Z,3.90
2019-05-18T15:31:57.538Z,3.58
2019-05-18T15:35:00.633Z,3.90
2019-05-18T15:38:03.875Z,3.47
2019-05-18T15:41:07.026Z,3.58
2019-05-18T15:44:11.787Z,3.72
2019-05-18T15:47:17.763Z,3.87
2019-05-18T15:50:21.342Z,4.10
2019-05-18T15:53:24.511Z,4.62
2019-05-18T15:56:27.453Z,4.37
2019-05-18T15:59:30.625Z,3.77
2019-05-18T16:02:33.914Z,3.98
2019-05-18T16:05:36.982Z,3.40
2019-05-18T16:08:40.276Z,3.50
2019-05-18T16:11:45.059Z,3.87
2019-05-18T16:14:48.446Z,3.98
2019-05-18T16:17:51.811Z,3.65
2019-05-18T16:20:55.058Z,4.12
2019-05-18T16:23:59.227Z,3.83
2019-05-18T16:27:02.519Z,3.47
2019-05-18T16:30:06.135Z,4.08
2019-05-18T16:33:09.427Z,3.70
2019-05-18T16:36:12.720Z,3.90
2019-05-18T16:39:16.014Z,3.90
2019-05-18T16:42:20.139Z,3.62
2019-05-18T16:45:23.570Z,3.80
2019-05-18T16:48:26.637Z,4.20
2019-05-18T16:51:29.749Z,4.78
2019-05-18T16:54:32.916Z,4.80
2019-05-18T16:57:37.351Z,5.00
2019-05-18T17:00:40.477Z,5.67
2019-05-18T17:03:43.627Z,4.72
2019-05-18T17:06:46.832Z,4.97
2019-05-18T17:09:50.013Z,4.50
2019-05-18T17:12:53.114Z,4.83
2019-05-18T17:15:56.307Z,4.40
2019-05-18T17:19:00.536Z,4.00
2019-05-18T17:22:03.626Z,4.17
2019-05-18T17:25:07.534Z,4.12
2019-05-18T17:28:11.757Z,4.03
2019-05-18T17:31:16.091Z,4.17
2019-05-18T17:34:21.113Z,4.30
2019-05-18T17:37:24.338Z,4.17
2019-05-18T17:40:27.506Z,4.28
2019-05-18T17:43:30.777Z,4.30
2019-05-18T17:46:35.702Z,4.25
2019-05-18T17:49:38.714Z,3.98
2019-05-18T17:52:42.055Z,4.67
2019-05-18T17:55:45.310Z,4.37
2019-05-18T17:58:48.546Z,4.30
2019-05-18T18:01:52.888Z,4.03
2019-05-18T18:04:57.026Z,4.47
2019-05-18T18:08:00.288Z,4.42
2019-05-18T18:11:03.453Z,3.95
2019-05-18T18:14:06.674Z,5.15
2019-05-18T18:17:12.738Z,4.47
2019-05-18T18:20:16.206Z,4.50
2019-05-18T18:23:19.567Z,4.67
2019-05-18T18:26:22.797Z,4.80
2019-05-18T18:29:26.027Z,4.60
2019-05-18T18:32:29.222Z,5.47
2019-05-18T18:35:32.398Z,6.20
2019-05-18T18:38:35.718Z,6.53
2019-05-18T18:41:38.785Z,6.60
2019-05-18T18:44:42.080Z,6.80
2019-05-18T18:47:45.363Z,7.17
2019-05-18T18:50:48.452Z,7.97
2019-05-18T18:53:51.894Z,10.80
2019-05-18T18:56:55.059Z,8.58
2019-05-18T18:59:58.164Z,7.05
2019-05-18T19:03:01.366Z,6.47
2019-05-18T19:06:04.679Z,6.03
2019-05-18T19:09:07.879Z,5.60
2019-05-18T19:12:12.841Z,6.08
2019-05-18T19:15:17.107Z,5.28
2019-05-18T19:18:20.403Z,5.20
2019-05-18T19:21:24.453Z,5.35
2019-05-18T19:24:27.635Z,5.65
2019-05-18T19:27:32.430Z,5.08
2019-05-18T19:30:35.703Z,5.15
2019-05-18T19:33:39.050Z,5.95
2019-05-18T19:36:42.462Z,5.90
2019-05-18T19:39:45.730Z,6.47
2019-05-18T19:42:50.495Z,6.08
2019-05-18T19:45:53.790Z,6.35
2019-05-18T19:48:56.852Z,6.08
2019-05-18T19:52:00.980Z,6.30
2019-05-18T19:55:04.470Z,6.30
2019-05-18T19:58:09.306Z,6.65
2019-05-18T20:01:12.881Z,7.20
2019-05-18T20:04:16.206Z,6.22
2019-05-18T20:07:19.398Z,7.35
2019-05-18T20:10:22.599Z,6.75
2019-05-18T20:13:25.826Z,6.20
2019-05-18T20:16:28.728Z,6.03
2019-05-18T20:19:39.344Z,6.78
2019-05-18T20:22:39.990Z,8.25
2019-05-18T20:26:34.383Z,7.37
2019-05-18T20:29:37.650Z,7.33
2019-05-18T20:32:41.790Z,7.25
2019-05-18T20:35:45.094Z,7.25
2019-05-18T20:38:48.286Z,7.60
2019-05-18T20:41:51.383Z,8.30
2019-05-18T20:44:54.570Z,7.85
2019-05-18T20:47:57.874Z,7.62
2019-05-18T20:51:01.299Z,8.48
2019-05-18T20:54:04.794Z,8.68
2019-05-18T20:57:07.970Z,9.00
2019-05-18T21:00:11.202Z,9.35
2019-05-18T21:03:16.202Z,9.55
2019-05-18T21:06:19.330Z,9.73
2019-05-18T21:09:22.539Z,9.15
2019-05-18T21:12:25.687Z,9.48
2019-05-18T21:15:28.958Z,9.05
2019-05-18T21:18:32.282Z,9.10
2019-05-18T21:21:35.387Z,9.33
2019-05-18T21:24:38.610Z,8.60
2019-05-18T21:27:41.767Z,10.20
2019-05-18T21:30:46.670Z,10.05
2019-05-18T21:33:49.923Z,10.50
2019-05-18T21:36:54.221Z,10.23
2019-05-18T21:39:57.541Z,9.63
2019-05-18T21:43:00.702Z,9.70
2019-05-18T21:46:03.834Z,9.75
2019-05-18T21:49:07.046Z,9.20
2019-05-18T21:52:10.210Z,9.68
2019-05-18T21:55:13.550Z,9.90
2019-05-18T21:58:16.706Z,9.83
2019-05-18T22:01:19.906Z,10.20
2019-05-18T22:04:23.287Z,10.20
2019-05-18T22:07:26.498Z,10.08
2019-05-18T22:10:29.934Z,10.20
2019-05-18T22:13:33.204Z,10.15
2019-05-18T22:16:36.390Z,9.95
2019-05-18T22:19:39.614Z,10.35
2019-05-18T22:22:42.881Z,9.98
2019-05-18T22:25:46.011Z,10.23
2019-05-18T22:28:50.193Z,10.90
2019-05-18T22:31:53.389Z,10.03
2019-05-18T22:34:56.722Z,10.72
2019-05-18T22:37:59.784Z,11.63
2019-05-18T22:41:03.106Z,10.85
2019-05-18T22:44:06.380Z,10.58
2019-05-18T22:47:09.571Z,10.00
2019-05-18T22:50:14.814Z,10.20
2019-05-18T22:53:18.075Z,9.85
2019-05-18T22:56:21.329Z,10.98
2019-05-18T22:59:24.401Z,11.33
2019-05-18T23:02:27.603Z,11.57
2019-05-18T23:05:30.681Z,10.93
2019-05-18T23:08:33.915Z,10.15
2019-05-18T23:11:37.106Z,11.03
2019-05-18T23:14:40.270Z,11.03
2019-05-18T23:17:43.546Z,11.30
2019-05-18T23:20:46.566Z,10.23
2019-05-18T23:23:49.858Z,10.03
2019-05-18T23:26:53.034Z,10.13
2019-05-18T23:29:56.247Z,9.68
2019-05-18T23:32:59.445Z,10.55
2019-05-18T23:36:02.534Z,10.82
2019-05-18T23:39:06.038Z,11.03
2019-05-18T23:42:10.047Z,11.05
2019-05-18T23:45:14.143Z,11.12
2019-05-18T23:48:17.261Z,9.43
2019-05-18T23:52:27.760Z,10.82
2019-05-18T23:55:30.927Z,10.80
2019-05-18T23:58:34.162Z,10.60
